sensor_id;sensor_type;location;lat;lon;timestamp;temperature;humidity
66582;SHT31;53438;48.898;2.308;2023-06-10T03:00:57;24.22;58.20
66582;SHT31;53438;48.898;2.308;2023-06-10T03:03:23;24.24;58.10
66582;SHT31;53438;48.898;2.308;2023-06-10T03:05:49;24.29;57.99
66582;SHT31;53438;48.898;2.308;2023-06-10T03:08:14;24.20;58.24
66582;SHT31;53438;48.898;2.308;2023-06-10T03:10:39;24.20;58.46
66582;SHT31;53438;48.898;2.308;2023-06-10T03:13:05;24.21;58.23
66582;SHT31;53438;48.898;2.308;2023-06-10T03:15:30;24.26;58.15
66582;SHT31;53438;48.898;2.308;2023-06-10T03:17:58;24.25;58.07
66582;SHT31;53438;48.898;2.308;2023-06-10T03:20:24;24.35;57.90
66582;SHT31;53438;48.898;2.308;2023-06-10T03:22:50;24.15;58.37
66582;SHT31;53438;48.898;2.308;2023-06-10T03:25:16;24.10;58.39
66582;SHT31;53438;48.898;2.308;2023-06-10T03:27:42;23.98;58.92
66582;SHT31;53438;48.898;2.308;2023-06-10T03:30:08;23.93;59.00
66582;SHT31;53438;48.898;2.308;2023-06-10T03:32:33;23.87;59.16
66582;SHT31;53438;48.898;2.308;2023-06-10T03:35:00;23.87;59.18
66582;SHT31;53438;48.898;2.308;2023-06-10T03:37:26;23.74;59.41
66582;SHT31;53438;48.898;2.308;2023-06-10T03:39:51;23.74;59.34
66582;SHT31;53438;48.898;2.308;2023-06-10T03:42:16;23.81;59.31
66582;SHT31;53438;48.898;2.308;2023-06-10T03:44:42;23.71;59.62
66582;SHT31;53438;48.898;2.308;2023-06-10T03:47:07;23.67;59.52
66582;SHT31;53438;48.898;2.308;2023-06-10T03:49:32;23.67;59.70
66582;SHT31;53438;48.898;2.308;2023-06-10T03:51:58;23.66;59.52
66582;SHT31;53438;48.898;2.308;2023-06-10T03:54:24;23.62;59.78
66582;SHT31;53438;48.898;2.308;2023-06-10T03:56:49;23.59;59.73
66582;SHT31;53438;48.898;2.308;2023-06-10T03:59:15;23.57;59.87
66582;SHT31;53438;48.898;2.308;2023-06-10T04:01:40;23.54;59.72
66582;SHT31;53438;48.898;2.308;2023-06-10T04:04:06;23.43;59.98
66582;SHT31;53438;48.898;2.308;2023-06-10T04:06:31;23.45;59.73
66582;SHT31;53438;48.898;2.308;2023-06-10T04:08:57;23.29;60.13
66582;SHT31;53438;48.898;2.308;2023-06-10T04:11:23;23.24;60.16
66582;SHT31;53438;48.898;2.308;2023-06-10T04:13:49;23.33;59.94
66582;SHT31;53438;48.898;2.308;2023-06-10T04:16:15;23.32;60.05
66582;SHT31;53438;48.898;2.308;2023-06-10T04:18:41;23.27;60.13
66582;SHT31;53438;48.898;2.308;2023-06-10T04:21:07;23.23;60.24
66582;SHT31;53438;48.898;2.308;2023-06-10T04:23:35;23.29;60.16
66582;SHT31;53438;48.898;2.308;2023-06-10T04:26:00;23.26;60.18
66582;SHT31;53438;48.898;2.308;2023-06-10T04:28:25;23.20;60.26
66582;SHT31;53438;48.898;2.308;2023-06-10T04:30:53;23.20;60.11
66582;SHT31;53438;48.898;2.308;2023-06-10T04:33:18;23.22;60.41
66582;SHT31;53438;48.898;2.308;2023-06-10T04:35:43;23.32;59.99
66582;SHT31;53438;48.898;2.308;2023-06-10T04:38:09;23.36;59.69
66582;SHT31;53438;48.898;2.308;2023-06-10T04:40:35;23.22;60.10
66582;SHT31;53438;48.898;2.308;2023-06-10T04:43:00;23.27;59.96
66582;SHT31;53438;48.898;2.308;2023-06-10T04:45:25;23.12;60.48
66582;SHT31;53438;48.898;2.308;2023-06-10T04:47:51;22.88;61.15
66582;SHT31;53438;48.898;2.308;2023-06-10T04:50:16;23.15;60.50
66582;SHT31;53438;48.898;2.308;2023-06-10T04:52:42;23.22;60.33
66582;SHT31;53438;48.898;2.308;2023-06-10T04:55:07;23.16;60.52
66582;SHT31;53438;48.898;2.308;2023-06-10T04:57:33;23.13;60.69
66582;SHT31;53438;48.898;2.308;2023-06-10T04:59:59;23.11;60.83
66582;SHT31;53438;48.898;2.308;2023-06-10T05:02:24;23.16;60.79
66582;SHT31;53438;48.898;2.308;2023-06-10T05:04:50;23.09;60.94
66582;SHT31;53438;48.898;2.308;2023-06-10T05:07:15;23.02;61.17
66582;SHT31;53438;48.898;2.308;2023-06-10T05:09:41;23.11;61.02
66582;SHT31;53438;48.898;2.308;2023-06-10T05:12:06;22.95;61.42
66582;SHT31;53438;48.898;2.308;2023-06-10T05:14:32;23.06;61.24
66582;SHT31;53438;48.898;2.308;2023-06-10T05:16:57;23.05;61.25
66582;SHT31;53438;48.898;2.308;2023-06-10T05:19:22;23.09;61.12
66582;SHT31;53438;48.898;2.308;2023-06-10T05:21:48;23.16;61.02
66582;SHT31;53438;48.898;2.308;2023-06-10T05:24:14;23.32;60.53
66582;SHT31;53438;48.898;2.308;2023-06-10T05:26:39;23.34;60.40
66582;SHT31;53438;48.898;2.308;2023-06-10T05:29:08;23.36;60.33
66582;SHT31;53438;48.898;2.308;2023-06-10T05:31:34;23.34;60.26
66582;SHT31;53438;48.898;2.308;2023-06-10T05:33:59;23.34;60.31
66582;SHT31;53438;48.898;2.308;2023-06-10T05:36:25;23.33;60.36
66582;SHT31;53438;48.898;2.308;2023-06-10T05:38:51;23.47;59.91
66582;SHT31;53438;48.898;2.308;2023-06-10T05:41:17;23.53;60.09
66582;SHT31;53438;48.898;2.308;2023-06-10T05:43:42;23.63;59.54
66582;SHT31;53438;48.898;2.308;2023-06-10T05:46:07;23.56;59.87
66582;SHT31;53438;48.898;2.308;2023-06-10T05:48:33;23.56;60.07
66582;SHT31;53438;48.898;2.308;2023-06-10T05:50:58;23.62;59.61
66582;SHT31;53438;48.898;2.308;2023-06-10T05:53:25;23.62;59.82
66582;SHT31;53438;48.898;2.308;2023-06-10T05:55:50;23.70;59.58
66582;SHT31;53438;48.898;2.308;2023-06-10T05:58:17;23.60;59.76
66582;SHT31;53438;48.898;2.308;2023-06-10T06:00:44;23.54;60.07
66582;SHT31;53438;48.898;2.308;2023-06-10T06:03:09;23.77;59.41
66582;SHT31;53438;48.898;2.308;2023-06-10T06:05:36;23.69;59.81
66582;SHT31;53438;48.898;2.308;2023-06-10T06:08:03;23.75;59.39
66582;SHT31;53438;48.898;2.308;2023-06-10T06:10:28;23.81;59.14
66582;SHT31;53438;48.898;2.308;2023-06-10T06:12:54;23.75;59.46
66582;SHT31;53438;48.898;2.308;2023-06-10T06:15:19;23.75;59.49
66582;SHT31;53438;48.898;2.308;2023-06-10T06:17:44;23.85;59.21
66582;SHT31;53438;48.898;2.308;2023-06-10T06:20:10;23.88;59.26
66582;SHT31;53438;48.898;2.308;2023-06-10T06:22:35;23.90;59.20
66582;SHT31;53438;48.898;2.308;2023-06-10T06:25:01;23.87;59.58
66582;SHT31;53438;48.898;2.308;2023-06-10T06:27:26;23.90;59.35
66582;SHT31;53438;48.898;2.308;2023-06-10T06:29:51;24.01;59.06
66582;SHT31;53438;48.898;2.308;2023-06-10T06:32:17;23.87;59.62
66582;SHT31;53438;48.898;2.308;2023-06-10T06:34:42;24.01;59.43
66582;SHT31;53438;48.898;2.308;2023-06-10T06:37:08;24.20;58.96
66582;SHT31;53438;48.898;2.308;2023-06-10T06:39:33;24.38;58.64
66582;SHT31;53438;48.898;2.308;2023-06-10T06:41:58;24.36;58.72
66582;SHT31;53438;48.898;2.308;2023-06-10T06:44:24;24.21;58.93
66582;SHT31;53438;48.898;2.308;2023-06-10T06:46:49;24.43;58.75
66582;SHT31;53438;48.898;2.308;2023-06-10T06:49:14;24.55;58.58
66582;SHT31;53438;48.898;2.308;2023-06-10T06:51:40;24.42;58.98
66582;SHT31;53438;48.898;2.308;2023-06-10T06:54:05;24.55;58.70
66582;SHT31;53438;48.898;2.308;2023-06-10T06:56:31;24.62;58.67
66582;SHT31;53438;48.898;2.308;2023-06-10T06:58:56;24.72;58.54
66582;SHT31;53438;48.898;2.308;2023-06-10T07:01:22;24.77;58.55
66582;SHT31;53438;48.898;2.308;2023-06-10T07:03:47;24.76;58.80
66582;SHT31;53438;48.898;2.308;2023-06-10T07:06:12;24.83;58.33
66582;SHT31;53438;48.898;2.308;2023-06-10T07:08:38;24.93;58.15
66582;SHT31;53438;48.898;2.308;2023-06-10T07:11:03;25.00;58.16
66582;SHT31;53438;48.898;2.308;2023-06-10T07:13:29;24.99;58.42
66582;SHT31;53438;48.898;2.308;2023-06-10T07:15:54;25.06;58.39
66582;SHT31;53438;48.898;2.308;2023-06-10T07:18:19;24.87;58.79
66582;SHT31;53438;48.898;2.308;2023-06-10T07:20:45;24.99;59.08
66582;SHT31;53438;48.898;2.308;2023-06-10T07:23:10;25.07;58.96
66582;SHT31;53438;48.898;2.308;2023-06-10T07:25:36;25.06;59.11
66582;SHT31;53438;48.898;2.308;2023-06-10T07:28:01;25.13;59.01
66582;SHT31;53438;48.898;2.308;2023-06-10T07:30:28;25.13;58.94
66582;SHT31;53438;48.898;2.308;2023-06-10T07:32:53;25.10;58.94
66582;SHT31;53438;48.898;2.308;2023-06-10T07:35:19;25.19;58.57
66582;SHT31;53438;48.898;2.308;2023-06-10T07:37:44;25.35;58.43
66582;SHT31;53438;48.898;2.308;2023-06-10T07:40:10;25.64;57.38
66582;SHT31;53438;48.898;2.308;2023-06-10T07:42:35;25.75;57.17
66582;SHT31;53438;48.898;2.308;2023-06-10T07:45:02;25.77;57.02
66582;SHT31;53438;48.898;2.308;2023-06-10T07:47:28;25.85;56.82
66582;SHT31;53438;48.898;2.308;2023-06-10T07:49:54;25.99;56.38
66582;SHT31;53438;48.898;2.308;2023-06-10T07:52:19;26.15;55.91
66582;SHT31;53438;48.898;2.308;2023-06-10T07:54:45;26.08;56.21
66582;SHT31;53438;48.898;2.308;2023-06-10T07:57:10;26.10;55.98
66582;SHT31;53438;48.898;2.308;2023-06-10T07:59:36;26.09;56.02
66582;SHT31;53438;48.898;2.308;2023-06-10T08:02:01;26.43;55.45
66582;SHT31;53438;48.898;2.308;2023-06-10T08:04:26;26.40;55.32
66582;SHT31;53438;48.898;2.308;2023-06-10T08:06:52;26.39;55.52
66582;SHT31;53438;48.898;2.308;2023-06-10T08:09:17;26.43;55.43
66582;SHT31;53438;48.898;2.308;2023-06-10T08:11:44;26.43;55.59
66582;SHT31;53438;48.898;2.308;2023-06-10T08:14:09;26.50;55.54
66582;SHT31;53438;48.898;2.308;2023-06-10T08:16:36;26.61;55.02
66582;SHT31;53438;48.898;2.308;2023-06-10T08:19:01;26.65;54.50
66582;SHT31;53438;48.898;2.308;2023-06-10T08:21:26;26.51;54.92
66582;SHT31;53438;48.898;2.308;2023-06-10T08:23:53;26.57;54.61
66582;SHT31;53438;48.898;2.308;2023-06-10T08:26:19;26.65;54.40
66582;SHT31;53438;48.898;2.308;2023-06-10T08:28:44;26.58;54.63
66582;SHT31;53438;48.898;2.308;2023-06-10T08:31:11;26.63;54.44
66582;SHT31;53438;48.898;2.308;2023-06-10T08:33:37;26.64;54.46
66582;SHT31;53438;48.898;2.308;2023-06-10T08:36:02;26.67;54.35
66582;SHT31;53438;48.898;2.308;2023-06-10T08:38:27;26.58;54.22
66582;SHT31;53438;48.898;2.308;2023-06-10T08:40:56;26.71;54.58
66582;SHT31;53438;48.898;2.308;2023-06-10T08:45:51;26.78;53.37
66582;SHT31;53438;48.898;2.308;2023-06-10T08:48:20;26.90;53.04
66582;SHT31;53438;48.898;2.308;2023-06-10T08:50:46;26.95;53.13
66582;SHT31;53438;48.898;2.308;2023-06-10T08:53:18;26.95;53.24
66582;SHT31;53438;48.898;2.308;2023-06-10T08:55:46;26.83;53.43
66582;SHT31;53438;48.898;2.308;2023-06-10T08:58:17;27.01;53.27
66582;SHT31;53438;48.898;2.308;2023-06-10T09:00:42;27.14;52.84
66582;SHT31;53438;48.898;2.308;2023-06-10T09:03:08;27.22;52.90
66582;SHT31;53438;48.898;2.308;2023-06-10T09:05:35;27.24;52.87
66582;SHT31;53438;48.898;2.308;2023-06-10T09:08:02;27.26;52.82
66582;SHT31;53438;48.898;2.308;2023-06-10T09:10:27;27.29;53.01
66582;SHT31;53438;48.898;2.308;2023-06-10T09:12:53;27.45;52.96
66582;SHT31;53438;48.898;2.308;2023-06-10T09:15:19;27.60;52.80
66582;SHT31;53438;48.898;2.308;2023-06-10T09:17:45;27.69;52.55
66582;SHT31;53438;48.898;2.308;2023-06-10T09:20:11;27.65;52.20
66582;SHT31;53438;48.898;2.308;2023-06-10T09:22:36;27.66;51.96
66582;SHT31;53438;48.898;2.308;2023-06-10T09:25:03;27.69;51.42
66582;SHT31;53438;48.898;2.308;2023-06-10T09:27:30;27.85;50.85
66582;SHT31;53438;48.898;2.308;2023-06-10T09:29:57;27.74;51.21
66582;SHT31;53438;48.898;2.308;2023-06-10T09:32:23;27.66;51.72
66582;SHT31;53438;48.898;2.308;2023-06-10T09:34:50;27.69;51.20
66582;SHT31;53438;48.898;2.308;2023-06-10T09:37:24;27.79;51.11
66582;SHT31;53438;48.898;2.308;2023-06-10T09:40:06;28.04;50.67
66582;SHT31;53438;48.898;2.308;2023-06-10T09:42:35;28.13;50.30
66582;SHT31;53438;48.898;2.308;2023-06-10T09:45:06;28.06;49.83
66582;SHT31;53438;48.898;2.308;2023-06-10T09:47:32;27.94;49.88
66582;SHT31;53438;48.898;2.308;2023-06-10T09:49:58;28.00;49.66
66582;SHT31;53438;48.898;2.308;2023-06-10T09:52:24;28.07;49.68
66582;SHT31;53438;48.898;2.308;2023-06-10T09:54:54;28.07;49.81
66582;SHT31;53438;48.898;2.308;2023-06-10T09:57:21;28.14;49.06
66582;SHT31;53438;48.898;2.308;2023-06-10T09:59:46;28.18;48.54
66582;SHT31;53438;48.898;2.308;2023-06-10T10:02:15;28.27;47.89
66582;SHT31;53438;48.898;2.308;2023-06-10T10:04:42;28.21;47.99
66582;SHT31;53438;48.898;2.308;2023-06-10T10:07:08;28.27;47.94
66582;SHT31;53438;48.898;2.308;2023-06-10T10:09:35;28.21;47.72
66582;SHT31;53438;48.898;2.308;2023-06-10T10:12:01;28.28;47.82
66582;SHT31;53438;48.898;2.308;2023-06-10T10:14:28;28.25;47.69
66582;SHT31;53438;48.898;2.308;2023-06-10T10:16:57;28.22;47.57
66582;SHT31;53438;48.898;2.308;2023-06-10T10:19:31;28.44;47.13
66582;SHT31;53438;48.898;2.308;2023-06-10T10:22:08;28.31;46.01
66582;SHT31;53438;48.898;2.308;2023-06-10T10:24:45;28.34;46.35
66582;SHT31;53438;48.898;2.308;2023-06-10T10:27:18;28.52;45.99
66582;SHT31;53438;48.898;2.308;2023-06-10T10:29:47;28.59;46.51
66582;SHT31;53438;48.898;2.308;2023-06-10T10:32:13;28.59;46.20
66582;SHT31;53438;48.898;2.308;2023-06-10T10:35:01;28.61;46.19
66582;SHT31;53438;48.898;2.308;2023-06-10T10:37:30;28.68;45.18
66582;SHT31;53438;48.898;2.308;2023-06-10T10:39:56;28.82;45.28
66582;SHT31;53438;48.898;2.308;2023-06-10T10:42:22;28.82;45.59
66582;SHT31;53438;48.898;2.308;2023-06-10T10:44:49;28.83;45.62
66582;SHT31;53438;48.898;2.308;2023-06-10T10:47:15;28.99;45.52
66582;SHT31;53438;48.898;2.308;2023-06-10T10:49:43;28.96;44.89
66582;SHT31;53438;48.898;2.308;2023-06-10T10:52:11;29.02;45.10
66582;SHT31;53438;48.898;2.308;2023-06-10T10:54:39;29.05;44.88
66582;SHT31;53438;48.898;2.308;2023-06-10T10:57:15;29.13;44.25
66582;SHT31;53438;48.898;2.308;2023-06-10T10:59:45;29.02;44.89
66582;SHT31;53438;48.898;2.308;2023-06-10T11:02:16;29.13;44.96
66582;SHT31;53438;48.898;2.308;2023-06-10T11:04:46;29.29;44.44
66582;SHT31;53438;48.898;2.308;2023-06-10T11:07:12;29.30;44.59
66582;SHT31;53438;48.898;2.308;2023-06-10T11:15:12;29.51;44.22
66582;SHT31;53438;48.898;2.308;2023-06-10T11:23:07;29.44;44.20
66582;SHT31;53438;48.898;2.308;2023-06-10T11:25:39;29.53;44.29
66582;SHT31;53438;48.898;2.308;2023-06-10T11:28:17;29.27;44.66
66582;SHT31;53438;48.898;2.308;2023-06-10T11:30:43;29.33;44.48
66582;SHT31;53438;48.898;2.308;2023-06-10T11:33:17;29.20;44.78
66582;SHT31;53438;48.898;2.308;2023-06-10T11:35:43;29.09;44.98
66582;SHT31;53438;48.898;2.308;2023-06-10T11:38:09;29.30;44.15
66582;SHT31;53438;48.898;2.308;2023-06-10T11:40:34;29.40;43.76
66582;SHT31;53438;48.898;2.308;2023-06-10T11:43:03;29.50;43.70
66582;SHT31;53438;48.898;2.308;2023-06-10T11:45:29;29.57;43.66
66582;SHT31;53438;48.898;2.308;2023-06-10T11:48:00;29.64;43.95
66582;SHT31;53438;48.898;2.308;2023-06-10T11:50:32;29.68;43.82
66582;SHT31;53438;48.898;2.308;2023-06-10T11:52:58;29.82;43.08
66582;SHT31;53438;48.898;2.308;2023-06-10T11:55:47;29.67;43.85
66582;SHT31;53438;48.898;2.308;2023-06-10T11:58:14;29.46;44.41
66582;SHT31;53438;48.898;2.308;2023-06-10T12:00:53;29.50;44.62
66582;SHT31;53438;48.898;2.308;2023-06-10T12:03:20;29.75;43.83
66582;SHT31;53438;48.898;2.308;2023-06-10T12:06:05;29.63;44.07
66582;SHT31;53438;48.898;2.308;2023-06-10T12:08:34;29.58;44.12
66582;SHT31;53438;48.898;2.308;2023-06-10T12:11:06;29.49;44.02
66582;SHT31;53438;48.898;2.308;2023-06-10T12:13:31;29.67;44.02
66582;SHT31;53438;48.898;2.308;2023-06-10T12:16:07;29.77;43.42
66582;SHT31;53438;48.898;2.308;2023-06-10T12:18:32;29.74;43.57
66582;SHT31;53438;48.898;2.308;2023-06-10T12:20:58;29.78;42.77
66582;SHT31;53438;48.898;2.308;2023-06-10T12:23:25;29.65;43.32
66582;SHT31;53438;48.898;2.308;2023-06-10T12:25:52;29.78;43.32
66582;SHT31;53438;48.898;2.308;2023-06-10T12:28:23;29.88;43.50
66582;SHT31;53438;48.898;2.308;2023-06-10T12:30:49;29.95;43.50
66582;SHT31;53438;48.898;2.308;2023-06-10T12:33:18;29.91;43.47
66582;SHT31;53438;48.898;2.308;2023-06-10T12:35:51;29.95;43.31
66582;SHT31;53438;48.898;2.308;2023-06-10T12:38:24;29.92;43.38
66582;SHT31;53438;48.898;2.308;2023-06-10T12:40:54;29.89;42.90
66582;SHT31;53438;48.898;2.308;2023-06-10T12:43:23;29.74;43.61
66582;SHT31;53438;48.898;2.308;2023-06-10T12:45:49;29.75;44.46
66582;SHT31;53438;48.898;2.308;2023-06-10T12:48:18;29.67;45.18
66582;SHT31;53438;48.898;2.308;2023-06-10T12:50:46;29.61;45.33
66582;SHT31;53438;48.898;2.308;2023-06-10T12:53:13;29.55;45.33
66582;SHT31;53438;48.898;2.308;2023-06-10T12:55:39;29.55;45.44
66582;SHT31;53438;48.898;2.308;2023-06-10T12:58:04;29.68;44.90
66582;SHT31;53438;48.898;2.308;2023-06-10T13:00:30;29.73;44.59
66582;SHT31;53438;48.898;2.308;2023-06-10T13:02:56;29.70;43.74
66582;SHT31;53438;48.898;2.308;2023-06-10T13:05:22;29.81;43.31
66582;SHT31;53438;48.898;2.308;2023-06-10T13:07:48;29.67;43.46
66582;SHT31;53438;48.898;2.308;2023-06-10T13:10:14;29.50;43.95
66582;SHT31;53438;48.898;2.308;2023-06-10T13:12:41;29.42;44.61
66582;SHT31;53438;48.898;2.308;2023-06-10T13:15:07;29.40;44.89
66582;SHT31;53438;48.898;2.308;2023-06-10T13:17:33;29.43;44.83
66582;SHT31;53438;48.898;2.308;2023-06-10T13:20:05;29.34;45.01
66582;SHT31;53438;48.898;2.308;2023-06-10T13:22:32;29.33;44.89
66582;SHT31;53438;48.898;2.308;2023-06-10T13:25:03;29.34;44.54
66582;SHT31;53438;48.898;2.308;2023-06-10T13:27:28;29.33;44.76
66582;SHT31;53438;48.898;2.308;2023-06-10T13:29:54;29.42;45.36
66582;SHT31;53438;48.898;2.308;2023-06-10T13:32:19;29.42;45.32
66582;SHT31;53438;48.898;2.308;2023-06-10T13:34:45;29.37;45.10
66582;SHT31;53438;48.898;2.308;2023-06-10T13:37:11;29.42;45.02
66582;SHT31;53438;48.898;2.308;2023-06-10T13:39:38;29.43;45.32
66582;SHT31;53438;48.898;2.308;2023-06-10T13:42:04;29.53;44.67
66582;SHT31;53438;48.898;2.308;2023-06-10T13:44:29;29.51;44.79
66582;SHT31;53438;48.898;2.308;2023-06-10T13:46:58;29.50;45.17
66582;SHT31;53438;48.898;2.308;2023-06-10T13:49:24;29.43;44.48
66582;SHT31;53438;48.898;2.308;2023-06-10T13:51:49;29.27;44.49
66582;SHT31;53438;48.898;2.308;2023-06-10T13:54:16;29.27;44.39
66582;SHT31;53438;48.898;2.308;2023-06-10T13:56:41;29.17;44.58
66582;SHT31;53438;48.898;2.308;2023-06-10T13:59:07;29.16;45.04
66582;SHT31;53438;48.898;2.308;2023-06-10T14:01:32;29.17;44.89
66582;SHT31;53438;48.898;2.308;2023-06-10T14:03:58;29.22;44.83
66582;SHT31;53438;48.898;2.308;2023-06-10T14:06:24;29.16;45.17
66582;SHT31;53438;48.898;2.308;2023-06-10T14:08:49;29.12;45.21
66582;SHT31;53438;48.898;2.308;2023-06-10T14:11:14;29.02;45.44
66582;SHT31;53438;48.898;2.308;2023-06-10T14:13:40;29.03;45.43
66582;SHT31;53438;48.898;2.308;2023-06-10T14:16:05;28.96;45.72
66582;SHT31;53438;48.898;2.308;2023-06-10T14:18:31;29.09;45.65
66582;SHT31;53438;48.898;2.308;2023-06-10T14:20:57;29.33;44.50
66582;SHT31;53438;48.898;2.308;2023-06-10T14:23:22;29.46;44.26
66582;SHT31;53438;48.898;2.308;2023-06-10T14:25:49;29.61;44.28
66582;SHT31;53438;48.898;2.308;2023-06-10T14:28:15;29.78;44.14
66582;SHT31;53438;48.898;2.308;2023-06-10T14:30:40;30.00;43.80
66582;SHT31;53438;48.898;2.308;2023-06-10T14:33:05;29.97;43.56
66582;SHT31;53438;48.898;2.308;2023-06-10T14:35:31;29.95;43.37
66582;SHT31;53438;48.898;2.308;2023-06-10T14:37:56;29.84;43.76
66582;SHT31;53438;48.898;2.308;2023-06-10T14:40:21;29.92;43.44
66582;SHT31;53438;48.898;2.308;2023-06-10T14:42:48;29.97;43.42
66582;SHT31;53438;48.898;2.308;2023-06-10T14:45:13;30.14;42.52
66582;SHT31;53438;48.898;2.308;2023-06-10T14:47:40;30.29;42.43
66582;SHT31;53438;48.898;2.308;2023-06-10T14:50:05;30.37;42.26
66582;SHT31;53438;48.898;2.308;2023-06-10T14:52:31;30.53;41.83
66582;SHT31;53438;48.898;2.308;2023-06-10T14:54:56;30.66;41.67
66582;SHT31;53438;48.898;2.308;2023-06-10T14:57:22;30.72;41.78
66582;SHT31;53438;48.898;2.308;2023-06-10T14:59:48;30.82;41.30
66582;SHT31;53438;48.898;2.308;2023-06-10T15:02:13;30.80;41.33
66582;SHT31;53438;48.898;2.308;2023-06-10T15:04:40;30.90;40.84
66582;SHT31;53438;48.898;2.308;2023-06-10T15:07:05;30.94;40.84
66582;SHT31;53438;48.898;2.308;2023-06-10T15:09:31;31.04;40.86
66582;SHT31;53438;48.898;2.308;2023-06-10T15:11:59;31.03;41.09
66582;SHT31;53438;48.898;2.308;2023-06-10T15:14:25;30.95;41.42
66582;SHT31;53438;48.898;2.308;2023-06-10T15:16:51;30.82;41.56
66582;SHT31;53438;48.898;2.308;2023-06-10T15:19:16;30.74;42.17
66582;SHT31;53438;48.898;2.308;2023-06-10T15:21:41;30.43;42.86
66582;SHT31;53438;48.898;2.308;2023-06-10T15:24:07;30.25;43.54
66582;SHT31;53438;48.898;2.308;2023-06-10T15:26:32;30.22;43.37
66582;SHT31;53438;48.898;2.308;2023-06-10T15:28:57;30.09;43.71
66582;SHT31;53438;48.898;2.308;2023-06-10T15:31:24;30.08;43.96
66582;SHT31;53438;48.898;2.308;2023-06-10T15:33:50;30.02;44.23
66582;SHT31;53438;48.898;2.308;2023-06-10T15:36:15;29.97;44.14
66582;SHT31;53438;48.898;2.308;2023-06-10T15:38:40;29.92;44.15
66582;SHT31;53438;48.898;2.308;2023-06-10T15:41:06;29.85;44.38
66582;SHT31;53438;48.898;2.308;2023-06-10T15:43:31;29.82;44.14
66582;SHT31;53438;48.898;2.308;2023-06-10T15:45:58;30.02;43.82
66582;SHT31;53438;48.898;2.308;2023-06-10T15:48:23;29.84;44.17
66582;SHT31;53438;48.898;2.308;2023-06-10T15:50:49;29.85;44.16
66582;SHT31;53438;48.898;2.308;2023-06-10T15:53:14;29.85;43.88
66582;SHT31;53438;48.898;2.308;2023-06-10T15:55:40;29.85;43.95
66582;SHT31;53438;48.898;2.308;2023-06-10T15:58:05;29.85;43.74
66582;SHT31;53438;48.898;2.308;2023-06-10T16:00:31;29.68;43.45
66582;SHT31;53438;48.898;2.308;2023-06-10T16:02:56;29.68;43.32
66582;SHT31;53438;48.898;2.308;2023-06-10T16:05:22;29.67;43.40
66582;SHT31;53438;48.898;2.308;2023-06-10T16:07:47;29.81;43.26
66582;SHT31;53438;48.898;2.308;2023-06-10T16:10:12;29.77;43.39
66582;SHT31;53438;48.898;2.308;2023-06-10T16:12:38;29.68;43.51
66582;SHT31;53438;48.898;2.308;2023-06-10T16:15:04;29.70;43.57
66582;SHT31;53438;48.898;2.308;2023-06-10T16:17:30;29.58;44.24
66582;SHT31;53438;48.898;2.308;2023-06-10T16:19:57;29.47;44.87
66582;SHT31;53438;48.898;2.308;2023-06-10T16:22:22;29.50;45.24
66582;SHT31;53438;48.898;2.308;2023-06-10T16:24:49;29.46;45.18
66582;SHT31;53438;48.898;2.308;2023-06-10T16:27:14;29.53;45.19
66582;SHT31;53438;48.898;2.308;2023-06-10T16:29:40;29.42;45.72
66582;SHT31;53438;48.898;2.308;2023-06-10T16:32:05;29.38;45.60
66582;SHT31;53438;48.898;2.308;2023-06-10T16:34:31;29.22;46.01
66582;SHT31;53438;48.898;2.308;2023-06-10T16:36:56;29.20;46.25
66582;SHT31;53438;48.898;2.308;2023-06-10T16:39:22;29.19;46.94
66582;SHT31;53438;48.898;2.308;2023-06-10T16:41:47;29.12;47.18
66582;SHT31;53438;48.898;2.308;2023-06-10T16:44:12;28.88;46.89
66582;SHT31;53438;48.898;2.308;2023-06-10T16:46:40;28.74;44.19
66582;SHT31;53438;48.898;2.308;2023-06-10T16:49:05;28.66;42.28
66582;SHT31;53438;48.898;2.308;2023-06-10T16:51:31;28.54;42.14
66582;SHT31;53438;48.898;2.308;2023-06-10T16:53:56;28.58;41.98
66582;SHT31;53438;48.898;2.308;2023-06-10T16:56:21;28.61;41.74
66582;SHT31;53438;48.898;2.308;2023-06-10T16:58:47;28.47;42.32
66582;SHT31;53438;48.898;2.308;2023-06-10T17:01:12;28.48;42.81
66582;SHT31;53438;48.898;2.308;2023-06-10T17:03:37;28.47;43.27
66582;SHT31;53438;48.898;2.308;2023-06-10T17:06:03;28.34;43.91
66582;SHT31;53438;48.898;2.308;2023-06-10T17:08:28;28.29;44.25
66582;SHT31;53438;48.898;2.308;2023-06-10T17:10:54;28.33;45.28
66582;SHT31;53438;48.898;2.308;2023-06-10T17:13:20;28.24;45.99
66582;SHT31;53438;48.898;2.308;2023-06-10T17:15:45;28.04;46.74
66582;SHT31;53438;48.898;2.308;2023-06-10T17:18:11;28.08;47.21
66582;SHT31;53438;48.898;2.308;2023-06-10T17:20:36;27.94;48.64
66582;SHT31;53438;48.898;2.308;2023-06-10T17:23:01;27.86;49.54
66582;SHT31;53438;48.898;2.308;2023-06-10T17:25:27;27.74;50.70
66582;SHT31;53438;48.898;2.308;2023-06-10T17:27:52;27.55;51.06
66582;SHT31;53438;48.898;2.308;2023-06-10T17:30:18;27.67;50.92
66582;SHT31;53438;48.898;2.308;2023-06-10T17:32:43;27.41;51.39
66582;SHT31;53438;48.898;2.308;2023-06-10T17:35:09;27.15;51.38
66582;SHT31;53438;48.898;2.308;2023-06-10T17:37:35;27.21;51.41
66582;SHT31;53438;48.898;2.308;2023-06-10T17:40:01;27.24;51.35
66582;SHT31;53438;48.898;2.308;2023-06-10T17:42:26;27.41;51.32
66582;SHT31;53438;48.898;2.308;2023-06-10T17:44:51;27.38;51.88
66582;SHT31;53438;48.898;2.308;2023-06-10T17:47:17;27.21;52.64
66582;SHT31;53438;48.898;2.308;2023-06-10T17:49:42;27.11;53.08
66582;SHT31;53438;48.898;2.308;2023-06-10T17:52:07;27.02;53.86
66582;SHT31;53438;48.898;2.308;2023-06-10T17:54:33;27.01;54.18
66582;SHT31;53438;48.898;2.308;2023-06-10T17:56:58;26.73;55.01
66582;SHT31;53438;48.898;2.308;2023-06-10T17:59:23;26.84;54.33
66582;SHT31;53438;48.898;2.308;2023-06-10T18:01:49;26.84;54.15
66582;SHT31;53438;48.898;2.308;2023-06-10T18:04:14;26.70;54.24
66582;SHT31;53438;48.898;2.308;2023-06-10T18:06:40;26.78;53.77
66582;SHT31;53438;48.898;2.308;2023-06-10T18:09:05;26.80;52.65
66582;SHT31;53438;48.898;2.308;2023-06-10T18:11:31;26.81;52.65
66582;SHT31;53438;48.898;2.308;2023-06-10T18:13:56;26.77;52.50
66582;SHT31;53438;48.898;2.308;2023-06-10T18:16:22;26.83;50.85
66582;SHT31;53438;48.898;2.308;2023-06-10T18:18:47;26.71;50.65
66582;SHT31;53438;48.898;2.308;2023-06-10T18:21:13;26.80;50.17
66582;SHT31;53438;48.898;2.308;2023-06-10T18:23:39;26.49;49.96
66582;SHT31;53438;48.898;2.308;2023-06-10T18:26:05;26.51;49.57
66582;SHT31;53438;48.898;2.308;2023-06-10T18:28:31;26.49;49.56
66582;SHT31;53438;48.898;2.308;2023-06-10T18:30:57;26.54;49.43
66582;SHT31;53438;48.898;2.308;2023-06-10T18:33:23;26.43;50.02
66582;SHT31;53438;48.898;2.308;2023-06-10T18:35:48;26.47;49.93
66582;SHT31;53438;48.898;2.308;2023-06-10T18:38:14;26.16;51.17